sensor_id;sensor_type;location;lat;lon;timestamp;pressure;altitude;pressure_sealevel;temperature;humidity
24031;BME280;12240;51.142;22.486;2022-11-20T00:01:33;99239.22;;;-6.91;100.00
24031;BME280;12240;51.142;22.486;2022-11-20T00:04:01;99270.78;;;-6.80;100.00
24031;BME280;12240;51.142;22.486;2022-11-20T00:06:29;99255.75;;;-6.95;100.00
24031;BME280;12240;51.142;22.486;2022-11-20T00:08:59;99301.97;;;-6.84;100.00
24031;BME280;12240;51.142;22.486;2022-11-20T00:11:29;99313.28;;;-6.87;100.00
24031;BME280;12240;51.142;22.486;2022-11-20T00:14:00;99272.53;;;-7.08;100.00
24031;BME280;12240;51.142;22.486;2022-11-20T00:16:31;99256.56;;;-7.21;100.00
24031;BME280;12240;51.142;22.486;2022-11-20T00:18:59;99295.72;;;-7.05;100.00
24031;BME280;12240;51.142;22.486;2022-11-20T00:21:29;99232.13;;;-7.40;100.00
24031;BME280;12240;51.142;22.486;2022-11-20T00:23:58;99237.84;;;-7.30;100.00
24031;BME280;12240;51.142;22.486;2022-11-20T00:26:27;99252.63;;;-7.06;100.00
24031;BME280;12240;51.142;22.486;2022-11-20T00:28:59;99301.25;;;-6.62;100.00
24031;BME280;12240;51.142;22.486;2022-11-20T00:31:28;99267.34;;;-6.54;100.00
24031;BME280;12240;51.142;22.486;2022-11-20T00:33:57;99241.28;;;-6.50;100.00
24031;BME280;12240;51.142;22.486;2022-11-20T00:36:28;99279.72;;;-6.12;100.00
24031;BME280;12240;51.142;22.486;2022-11-20T00:38:57;99236.09;;;-6.24;100.00
24031;BME280;12240;51.142;22.486;2022-11-20T00:41:27;99284.59;;;-5.79;100.00
24031;BME280;12240;51.142;22.486;2022-11-20T00:43:56;99287.47;;;-5.62;100.00
24031;BME280;12240;51.142;22.486;2022-11-20T00:46:27;99283.38;;;-5.46;100.00
24031;BME280;12240;51.142;22.486;2022-11-20T00:48:56;99271.00;;;-5.38;100.00
24031;BME280;12240;51.142;22.486;2022-11-20T00:51:26;99220.50;;;-5.53;100.00
24031;BME280;12240;51.142;22.486;2022-11-20T00:53:58;99275.28;;;-5.14;100.00
24031;BME280;12240;51.142;22.486;2022-11-20T00:56:27;99217.28;;;-5.36;100.00
24031;BME280;12240;51.142;22.486;2022-11-20T00:58:59;99257.50;;;-5.03;100.00
24031;BME280;12240;51.142;22.486;2022-11-20T01:01:29;99252.25;;;-5.02;100.00
24031;BME280;12240;51.142;22.486;2022-11-20T01:03:59;99255.72;;;-5.01;100.00
24031;BME280;12240;51.142;22.486;2022-11-20T01:06:31;99245.44;;;-5.04;100.00
24031;BME280;12240;51.142;22.486;2022-11-20T01:09:04;99192.84;;;-5.31;100.00
24031;BME280;12240;51.142;22.486;2022-11-20T01:11:38;99235.06;;;-5.04;100.00
24031;BME280;12240;51.142;22.486;2022-11-20T01:14:13;99243.38;;;-4.96;100.00
24031;BME280;12240;51.142;22.486;2022-11-20T01:16:45;99201.16;;;-5.23;100.00
24031;BME280;12240;51.142;22.486;2022-11-20T01:19:17;99227.94;;;-4.99;100.00
24031;BME280;12240;51.142;22.486;2022-11-20T01:21:49;99248.22;;;-4.87;100.00
24031;BME280;12240;51.142;22.486;2022-11-20T01:24:20;99234.81;;;-4.98;100.00
24031;BME280;12240;51.142;22.486;2022-11-20T01:26:50;99241.25;;;-4.87;100.00
24031;BME280;12240;51.142;22.486;2022-11-20T01:29:23;99233.53;;;-4.88;100.00
24031;BME280;12240;51.142;22.486;2022-11-20T01:31:52;99237.94;;;-4.90;100.00
24031;BME280;12240;51.142;22.486;2022-11-20T01:34:21;99205.00;;;-5.10;100.00
24031;BME280;12240;51.142;22.486;2022-11-20T01:36:51;99182.78;;;-5.17;100.00
24031;BME280;12240;51.142;22.486;2022-11-20T01:39:23;99180.78;;;-5.10;100.00
24031;BME280;12240;51.142;22.486;2022-11-20T01:41:54;99234.34;;;-4.66;100.00
24031;BME280;12240;51.142;22.486;2022-11-20T01:47:37;99184.44;;;-4.32;100.00
24031;BME280;12240;51.142;22.486;2022-11-20T01:50:26;99216.88;;;-4.01;100.00
24031;BME280;12240;51.142;22.486;2022-11-20T01:53:04;99219.75;;;-3.88;100.00
24031;BME280;12240;51.142;22.486;2022-11-20T01:55:36;99219.38;;;-3.79;100.00
24031;BME280;12240;51.142;22.486;2022-11-20T01:58:07;99217.25;;;-3.71;100.00
24031;BME280;12240;51.142;22.486;2022-11-20T02:00:36;99212.44;;;-3.60;100.00
24031;BME280;12240;51.142;22.486;2022-11-20T02:03:08;99186.69;;;-3.66;100.00
24031;BME280;12240;51.142;22.486;2022-11-20T02:08:52;99212.19;;;-3.35;100.00
24031;BME280;12240;51.142;22.486;2022-11-20T02:11:21;99214.69;;;-3.34;100.00
24031;BME280;12240;51.142;22.486;2022-11-20T02:13:49;99197.53;;;-3.38;100.00
24031;BME280;12240;51.142;22.486;2022-11-20T02:16:37;99217.72;;;-3.24;100.00
24031;BME280;12240;51.142;22.486;2022-11-20T02:19:26;99208.41;;;-3.30;100.00
24031;BME280;12240;51.142;22.486;2022-11-20T02:22:17;99221.44;;;-3.11;100.00
24031;BME280;12240;51.142;22.486;2022-11-20T02:24:46;99168.97;;;-3.39;100.00
24031;BME280;12240;51.142;22.486;2022-11-20T02:27:16;99173.31;;;-3.40;100.00
24031;BME280;12240;51.142;22.486;2022-11-20T02:29:55;99219.31;;;-3.03;100.00
24031;BME280;12240;51.142;22.486;2022-11-20T02:32:31;99225.16;;;-2.98;100.00
24031;BME280;12240;51.142;22.486;2022-11-20T02:37:56;99212.34;;;-3.03;100.00
24031;BME280;12240;51.142;22.486;2022-11-20T02:40:25;99215.34;;;-2.93;100.00
24031;BME280;12240;51.142;22.486;2022-11-20T02:42:54;99211.81;;;-2.92;100.00
24031;BME280;12240;51.142;22.486;2022-11-20T02:45:24;99208.47;;;-2.94;100.00
24031;BME280;12240;51.142;22.486;2022-11-20T02:47:52;99203.88;;;-2.89;100.00
24031;BME280;12240;51.142;22.486;2022-11-20T02:50:20;99196.69;;;-2.84;100.00
24031;BME280;12240;51.142;22.486;2022-11-20T02:52:48;99200.34;;;-2.88;100.00
24031;BME280;12240;51.142;22.486;2022-11-20T02:55:16;99197.59;;;-2.85;100.00
24031;BME280;12240;51.142;22.486;2022-11-20T02:57:44;99198.38;;;-2.83;100.00
24031;BME280;12240;51.142;22.486;2022-11-20T03:00:13;99197.31;;;-2.79;100.00
24031;BME280;12240;51.142;22.486;2022-11-20T03:02:42;99178.44;;;-2.84;100.00
24031;BME280;12240;51.142;22.486;2022-11-20T03:05:11;99182.81;;;-2.85;100.00
24031;BME280;12240;51.142;22.486;2022-11-20T03:07:39;99201.59;;;-2.78;100.00
24031;BME280;12240;51.142;22.486;2022-11-20T03:10:07;99154.41;;;-3.08;100.00
24031;BME280;12240;51.142;22.486;2022-11-20T03:12:35;99201.47;;;-2.75;100.00
24031;BME280;12240;51.142;22.486;2022-11-20T03:15:04;99199.91;;;-2.79;100.00
24031;BME280;12240;51.142;22.486;2022-11-20T03:17:32;99151.06;;;-3.10;100.00
24031;BME280;12240;51.142;22.486;2022-11-20T03:20:00;99204.97;;;-2.76;100.00
24031;BME280;12240;51.142;22.486;2022-11-20T03:22:29;99156.66;;;-3.00;100.00
24031;BME280;12240;51.142;22.486;2022-11-20T03:24:57;99196.25;;;-2.75;100.00
24031;BME280;12240;51.142;22.486;2022-11-20T03:27:25;99193.25;;;-2.68;100.00
24031;BME280;12240;51.142;22.486;2022-11-20T03:29:53;99162.91;;;-2.86;100.00
24031;BME280;12240;51.142;22.486;2022-11-20T03:32:22;99196.78;;;-2.69;100.00
24031;BME280;12240;51.142;22.486;2022-11-20T03:34:50;99190.03;;;-2.73;100.00
24031;BME280;12240;51.142;22.486;2022-11-20T03:37:18;99191.88;;;-2.75;100.00
24031;BME280;12240;51.142;22.486;2022-11-20T03:39:46;99175.47;;;-2.77;100.00
24031;BME280;12240;51.142;22.486;2022-11-20T03:42:14;99131.75;;;-3.06;100.00
24031;BME280;12240;51.142;22.486;2022-11-20T03:45:01;99159.88;;;-2.95;100.00
24031;BME280;12240;51.142;22.486;2022-11-20T03:47:29;99169.31;;;-2.93;100.00
24031;BME280;12240;51.142;22.486;2022-11-20T03:49:56;99166.22;;;-3.01;100.00
24031;BME280;12240;51.142;22.486;2022-11-20T03:52:24;99133.00;;;-3.31;100.00
24031;BME280;12240;51.142;22.486;2022-11-20T03:54:52;99171.41;;;-3.18;100.00
24031;BME280;12240;51.142;22.486;2022-11-20T03:57:20;99164.03;;;-3.27;100.00
24031;BME280;12240;51.142;22.486;2022-11-20T03:59:48;99156.22;;;-3.45;100.00
24031;BME280;12240;51.142;22.486;2022-11-20T04:02:18;99155.03;;;-3.57;100.00
24031;BME280;12240;51.142;22.486;2022-11-20T04:04:46;99165.38;;;-3.56;100.00
24031;BME280;12240;51.142;22.486;2022-11-20T04:07:14;99176.41;;;-3.50;100.00
24031;BME280;12240;51.142;22.486;2022-11-20T04:09:42;99171.09;;;-3.47;100.00
24031;BME280;12240;51.142;22.486;2022-11-20T04:12:10;99165.88;;;-3.47;100.00
24031;BME280;12240;51.142;22.486;2022-11-20T04:14:38;99152.78;;;-3.46;100.00
24031;BME280;12240;51.142;22.486;2022-11-20T04:17:06;99172.66;;;-3.26;100.00
24031;BME280;12240;51.142;22.486;2022-11-20T04:19:34;99123.81;;;-3.57;100.00
24031;BME280;12240;51.142;22.486;2022-11-20T04:22:02;99160.66;;;-3.29;100.00
24031;BME280;12240;51.142;22.486;2022-11-20T04:24:30;99157.69;;;-3.40;100.00
24031;BME280;12240;51.142;22.486;2022-11-20T04:26:58;99159.97;;;-3.32;100.00
24031;BME280;12240;51.142;22.486;2022-11-20T04:29:26;99161.63;;;-3.31;100.00
24031;BME280;12240;51.142;22.486;2022-11-20T04:31:54;99158.25;;;-3.33;100.00
24031;BME280;12240;51.142;22.486;2022-11-20T04:34:22;99157.50;;;-3.35;100.00
24031;BME280;12240;51.142;22.486;2022-11-20T04:36:50;99116.72;;;-3.53;100.00
24031;BME280;12240;51.142;22.486;2022-11-20T04:39:18;99133.38;;;-3.39;100.00
24031;BME280;12240;51.142;22.486;2022-11-20T04:41:46;99131.13;;;-3.46;100.00
24031;BME280;12240;51.142;22.486;2022-11-20T04:44:15;99146.59;;;-3.43;100.00
24031;BME280;12240;51.142;22.486;2022-11-20T04:46:43;99136.31;;;-3.46;100.00
24031;BME280;12240;51.142;22.486;2022-11-20T04:49:11;99138.06;;;-3.47;100.00
24031;BME280;12240;51.142;22.486;2022-11-20T04:51:39;99138.31;;;-3.51;100.00
24031;BME280;12240;51.142;22.486;2022-11-20T04:54:08;99122.91;;;-3.56;100.00
24031;BME280;12240;51.142;22.486;2022-11-20T04:56:38;99133.09;;;-3.51;100.00
24031;BME280;12240;51.142;22.486;2022-11-20T04:59:06;99048.19;;;-4.08;100.00
24031;BME280;12240;51.142;22.486;2022-11-20T05:01:34;99133.59;;;-3.62;100.00
24031;BME280;12240;51.142;22.486;2022-11-20T05:04:02;99131.84;;;-3.62;100.00
24031;BME280;12240;51.142;22.486;2022-11-20T05:06:30;99130.84;;;-3.59;100.00
24031;BME280;12240;51.142;22.486;2022-11-20T05:08:58;99093.72;;;-3.81;100.00
24031;BME280;12240;51.142;22.486;2022-11-20T05:11:26;99128.94;;;-3.56;100.00
24031;BME280;12240;51.142;22.486;2022-11-20T05:13:59;99085.22;;;-3.85;100.00
24031;BME280;12240;51.142;22.486;2022-11-20T05:16:27;99131.91;;;-3.63;100.00
24031;BME280;12240;51.142;22.486;2022-11-20T05:18:55;99065.28;;;-4.03;100.00
24031;BME280;12240;51.142;22.486;2022-11-20T05:21:24;99121.72;;;-3.68;100.00
24031;BME280;12240;51.142;22.486;2022-11-20T05:23:52;99119.41;;;-3.74;100.00
24031;BME280;12240;51.142;22.486;2022-11-20T05:26:21;99103.72;;;-3.91;100.00
24031;BME280;12240;51.142;22.486;2022-11-20T05:28:50;99116.72;;;-3.91;100.00
24031;BME280;12240;51.142;22.486;2022-11-20T05:31:21;99073.41;;;-4.29;100.00
24031;BME280;12240;51.142;22.486;2022-11-20T05:33:56;99070.34;;;-4.38;100.00
24031;BME280;12240;51.142;22.486;2022-11-20T05:36:24;99104.19;;;-4.20;100.00
24031;BME280;12240;51.142;22.486;2022-11-20T05:38:52;99075.13;;;-4.48;100.00
24031;BME280;12240;51.142;22.486;2022-11-20T05:41:28;99074.63;;;-4.56;100.00
24031;BME280;12240;51.142;22.486;2022-11-20T05:43:57;99117.22;;;-4.21;100.00
24031;BME280;12240;51.142;22.486;2022-11-20T05:46:26;99107.19;;;-4.29;100.00
24031;BME280;12240;51.142;22.486;2022-11-20T05:48:57;99092.78;;;-4.36;100.00
24031;BME280;12240;51.142;22.486;2022-11-20T05:51:26;99127.97;;;-4.29;100.00
24031;BME280;12240;51.142;22.486;2022-11-20T05:53:57;99137.38;;;-4.26;100.00
24031;BME280;12240;51.142;22.486;2022-11-20T05:56:26;99136.50;;;-4.25;100.00
24031;BME280;12240;51.142;22.486;2022-11-20T05:58:54;99144.88;;;-4.19;100.00
24031;BME280;12240;51.142;22.486;2022-11-20T06:01:25;99118.06;;;-4.39;100.00
24031;BME280;12240;51.142;22.486;2022-11-20T06:03:55;99145.34;;;-4.11;100.00
24031;BME280;12240;51.142;22.486;2022-11-20T06:06:23;99108.50;;;-4.39;100.00
24031;BME280;12240;51.142;22.486;2022-11-20T06:08:54;99150.28;;;-4.23;100.00
24031;BME280;12240;51.142;22.486;2022-11-20T06:11:23;99148.50;;;-4.23;100.00
24031;BME280;12240;51.142;22.486;2022-11-20T06:13:51;99021.78;;;-4.95;100.00
24031;BME280;12240;51.142;22.486;2022-11-20T06:16:19;99102.91;;;-4.50;100.00
24031;BME280;12240;51.142;22.486;2022-11-20T06:18:48;99100.72;;;-4.39;100.00
24031;BME280;12240;51.142;22.486;2022-11-20T06:21:21;99101.22;;;-4.31;100.00
24031;BME280;12240;51.142;22.486;2022-11-20T06:23:51;99103.13;;;-4.16;100.00
24031;BME280;12240;51.142;22.486;2022-11-20T06:26:23;99144.06;;;-3.82;100.00
24031;BME280;12240;51.142;22.486;2022-11-20T06:28:52;99097.75;;;-3.93;100.00
24031;BME280;12240;51.142;22.486;2022-11-20T06:31:23;99131.28;;;-3.68;100.00
24031;BME280;12240;51.142;22.486;2022-11-20T06:33:52;99095.94;;;-3.91;100.00
24031;BME280;12240;51.142;22.486;2022-11-20T06:36:22;99147.53;;;-3.44;100.00
24031;BME280;12240;51.142;22.486;2022-11-20T06:38:50;99096.06;;;-3.75;100.00
24031;BME280;12240;51.142;22.486;2022-11-20T06:41:21;99142.25;;;-3.43;100.00
24031;BME280;12240;51.142;22.486;2022-11-20T06:43:49;99060.00;;;-3.83;100.00
24031;BME280;12240;51.142;22.486;2022-11-20T06:46:19;99145.75;;;-3.25;100.00
24031;BME280;12240;51.142;22.486;2022-11-20T06:48:49;99150.78;;;-3.22;100.00
24031;BME280;12240;51.142;22.486;2022-11-20T06:51:17;99156.84;;;-3.22;100.00
24031;BME280;12240;51.142;22.486;2022-11-20T06:53:45;99145.50;;;-3.21;100.00
24031;BME280;12240;51.142;22.486;2022-11-20T06:56:14;99136.41;;;-3.12;100.00
24031;BME280;12240;51.142;22.486;2022-11-20T06:58:42;99127.75;;;-3.13;100.00
24031;BME280;12240;51.142;22.486;2022-11-20T07:01:13;99091.16;;;-3.27;100.00
24031;BME280;12240;51.142;22.486;2022-11-20T07:03:43;99137.38;;;-2.96;100.00
24031;BME280;12240;51.142;22.486;2022-11-20T07:06:11;99081.97;;;-3.17;100.00
24031;BME280;12240;51.142;22.486;2022-11-20T07:08:39;99093.53;;;-3.05;100.00
24031;BME280;12240;51.142;22.486;2022-11-20T07:11:08;99117.84;;;-2.88;100.00
24031;BME280;12240;51.142;22.486;2022-11-20T07:13:36;99123.13;;;-2.72;100.00
24031;BME280;12240;51.142;22.486;2022-11-20T07:16:07;99128.97;;;-2.67;100.00
24031;BME280;12240;51.142;22.486;2022-11-20T07:18:36;99060.38;;;-3.02;100.00
24031;BME280;12240;51.142;22.486;2022-11-20T07:21:09;99138.59;;;-2.52;100.00
24031;BME280;12240;51.142;22.486;2022-11-20T07:23:37;99126.63;;;-2.56;100.00
24031;BME280;12240;51.142;22.486;2022-11-20T07:26:08;99061.81;;;-2.79;100.00
24031;BME280;12240;51.142;22.486;2022-11-20T07:28:37;99108.47;;;-2.58;100.00
24031;BME280;12240;51.142;22.486;2022-11-20T07:31:06;99112.84;;;-2.41;100.00
24031;BME280;12240;51.142;22.486;2022-11-20T07:33:35;99111.81;;;-2.39;100.00
24031;BME280;12240;51.142;22.486;2022-11-20T07:36:03;99071.84;;;-2.55;100.00
24031;BME280;12240;51.142;22.486;2022-11-20T07:38:31;99105.28;;;-2.30;100.00
24031;BME280;12240;51.142;22.486;2022-11-20T07:41:00;99103.06;;;-2.20;100.00
24031;BME280;12240;51.142;22.486;2022-11-20T07:43:31;99102.28;;;-2.22;100.00
24031;BME280;12240;51.142;22.486;2022-11-20T07:46:05;99102.84;;;-2.33;100.00
24031;BME280;12240;51.142;22.486;2022-11-20T07:48:33;99100.59;;;-2.23;100.00
24031;BME280;12240;51.142;22.486;2022-11-20T07:51:02;99098.28;;;-2.12;100.00
24031;BME280;12240;51.142;22.486;2022-11-20T07:53:30;99095.50;;;-2.09;100.00
24031;BME280;12240;51.142;22.486;2022-11-20T07:56:02;99089.47;;;-2.10;100.00
24031;BME280;12240;51.142;22.486;2022-11-20T07:58:32;99097.03;;;-2.05;100.00
24031;BME280;12240;51.142;22.486;2022-11-20T08:01:06;99099.75;;;-1.91;100.00
24031;BME280;12240;51.142;22.486;2022-11-20T08:03:36;99011.38;;;-2.46;100.00
24031;BME280;12240;51.142;22.486;2022-11-20T08:06:07;99068.75;;;-2.13;100.00
24031;BME280;12240;51.142;22.486;2022-11-20T08:08:35;99100.75;;;-1.94;100.00
24031;BME280;12240;51.142;22.486;2022-11-20T08:11:09;99075.97;;;-2.18;100.00
24031;BME280;12240;51.142;22.486;2022-11-20T08:13:56;99096.56;;;-1.96;100.00
24031;BME280;12240;51.142;22.486;2022-11-20T08:16:46;99094.34;;;-2.04;100.00
24031;BME280;12240;51.142;22.486;2022-11-20T08:19:16;99095.53;;;-1.94;100.00
24031;BME280;12240;51.142;22.486;2022-11-20T08:21:46;99089.81;;;-2.00;100.00
24031;BME280;12240;51.142;22.486;2022-11-20T08:24:13;99084.28;;;-1.94;100.00
24031;BME280;12240;51.142;22.486;2022-11-20T08:26:41;99051.75;;;-2.04;100.00
24031;BME280;12240;51.142;22.486;2022-11-20T08:29:10;99096.31;;;-1.61;100.00
24031;BME280;12240;51.142;22.486;2022-11-20T08:31:38;99088.09;;;-1.69;100.00
24031;BME280;12240;51.142;22.486;2022-11-20T08:34:06;99091.09;;;-1.76;100.00
24031;BME280;12240;51.142;22.486;2022-11-20T08:36:36;99094.81;;;-1.65;100.00
24031;BME280;12240;51.142;22.486;2022-11-20T08:39:04;99093.44;;;-1.56;100.00
24031;BME280;12240;51.142;22.486;2022-11-20T08:41:33;99079.00;;;-1.62;100.00
24031;BME280;12240;51.142;22.486;2022-11-20T08:44:07;99080.41;;;-1.56;100.00
24031;BME280;12240;51.142;22.486;2022-11-20T08:46:37;99023.25;;;-1.92;100.00
24031;BME280;12240;51.142;22.486;2022-11-20T08:49:10;99067.44;;;-1.73;100.00
24031;BME280;12240;51.142;22.486;2022-11-20T08:51:40;99024.41;;;-1.82;100.00
24031;BME280;12240;51.142;22.486;2022-11-20T08:54:09;99066.81;;;-1.32;100.00
24031;BME280;12240;51.142;22.486;2022-11-20T08:56:38;99043.00;;;-1.41;100.00
24031;BME280;12240;51.142;22.486;2022-11-20T08:59:06;99015.06;;;-1.70;100.00
24031;BME280;12240;51.142;22.486;2022-11-20T09:01:54;99046.22;;;-1.67;100.00
24031;BME280;12240;51.142;22.486;2022-11-20T09:04:23;99028.94;;;-1.54;100.00
24031;BME280;12240;51.142;22.486;2022-11-20T09:06:51;99045.06;;;-1.62;100.00
24031;BME280;12240;51.142;22.486;2022-11-20T09:09:20;99040.16;;;-1.52;100.00
24031;BME280;12240;51.142;22.486;2022-11-20T09:11:49;98989.22;;;-1.75;100.00
24031;BME280;12240;51.142;22.486;2022-11-20T09:14:17;99050.00;;;-1.42;100.00
24031;BME280;12240;51.142;22.486;2022-11-20T09:16:46;99046.38;;;-1.55;100.00
24031;BME280;12240;51.142;22.486;2022-11-20T09:19:14;99002.25;;;-1.59;100.00
24031;BME280;12240;51.142;22.486;2022-11-20T09:22:03;99045.84;;;-1.30;100.00
24031;BME280;12240;51.142;22.486;2022-11-20T09:24:31;99043.50;;;-1.35;100.00
24031;BME280;12240;51.142;22.486;2022-11-20T09:27:04;99025.91;;;-1.47;100.00
24031;BME280;12240;51.142;22.486;2022-11-20T09:29:33;99050.31;;;-1.48;100.00
24031;BME280;12240;51.142;22.486;2022-11-20T09:32:01;99003.63;;;-1.68;100.00
24031;BME280;12240;51.142;22.486;2022-11-20T09:34:29;99041.41;;;-1.44;100.00
24031;BME280;12240;51.142;22.486;2022-11-20T09:36:57;99035.41;;;-1.46;100.00
24031;BME280;12240;51.142;22.486;2022-11-20T09:39:31;99045.69;;;-1.43;100.00
24031;BME280;12240;51.142;22.486;2022-11-20T09:42:40;99012.22;;;-1.66;100.00
24031;BME280;12240;51.142;22.486;2022-11-20T09:45:21;99050.22;;;-1.31;100.00
24031;BME280;12240;51.142;22.486;2022-11-20T09:56:28;99041.44;;;-1.14;100.00
24031;BME280;12240;51.142;22.486;2022-11-20T09:59:02;99032.03;;;-1.32;100.00
24031;BME280;12240;51.142;22.486;2022-11-20T10:01:35;99037.34;;;-1.34;100.00
24031;BME280;12240;51.142;22.486;2022-11-20T10:04:18;99038.50;;;-1.24;100.00
24031;BME280;12240;51.142;22.486;2022-11-20T10:07:16;98997.00;;;-1.44;100.00
24031;BME280;12240;51.142;22.486;2022-11-20T10:10:01;99033.38;;;-1.25;100.00
24031;BME280;12240;51.142;22.486;2022-11-20T10:15:36;99017.63;;;-1.39;100.00
24031;BME280;12240;51.142;22.486;2022-11-20T10:21:18;99039.59;;;-1.12;100.00
24031;BME280;12240;51.142;22.486;2022-11-20T10:24:24;99041.81;;;-1.06;100.00
24031;BME280;12240;51.142;22.486;2022-11-20T10:30:42;99053.13;;;-1.05;100.00
24031;BME280;12240;51.142;22.486;2022-11-20T10:33:22;99051.94;;;-1.00;100.00
24031;BME280;12240;51.142;22.486;2022-11-20T10:38:52;98997.72;;;-1.26;100.00
24031;BME280;12240;51.142;22.486;2022-11-20T10:41:38;99019.44;;;-0.96;100.00
24031;BME280;12240;51.142;22.486;2022-11-20T10:44:28;99024.81;;;-0.83;100.00
24031;BME280;12240;51.142;22.486;2022-11-20T10:47:22;99013.25;;;-0.79;100.00
24031;BME280;12240;51.142;22.486;2022-11-20T10:49:55;99022.00;;;-0.80;100.00
24031;BME280;12240;51.142;22.486;2022-11-20T10:53:00;99013.03;;;-0.90;100.00
24031;BME280;12240;51.142;22.486;2022-11-20T10:59:10;98972.38;;;-1.24;100.00
24031;BME280;12240;51.142;22.486;2022-11-20T11:01:42;99000.13;;;-1.07;100.00
24031;BME280;12240;51.142;22.486;2022-11-20T11:04:37;99011.19;;;-0.88;100.00
24031;BME280;12240;51.142;22.486;2022-11-20T11:07:23;99013.25;;;-0.79;100.00
24031;BME280;12240;51.142;22.486;2022-11-20T11:09:55;98974.75;;;-1.05;100.00
24031;BME280;12240;51.142;22.486;2022-11-20T11:12:25;98990.72;;;-0.96;100.00
24031;BME280;12240;51.142;22.486;2022-11-20T11:14:57;99018.38;;;-0.78;100.00
24031;BME280;12240;51.142;22.486;2022-11-20T11:17:30;99022.75;;;-0.78;100.00
24031;BME280;12240;51.142;22.486;2022-11-20T11:20:03;99011.00;;;-0.85;100.00
24031;BME280;12240;51.142;22.486;2022-11-20T11:22:34;99009.41;;;-0.88;100.00
24031;BME280;12240;51.142;22.486;2022-11-20T11:25:34;99013.00;;;-1.04;100.00
24031;BME280;12240;51.142;22.486;2022-11-20T11:28:22;99014.41;;;-0.99;100.00
24031;BME280;12240;51.142;22.486;2022-11-20T11:30:54;99006.94;;;-1.05;100.00
24031;BME280;12240;51.142;22.486;2022-11-20T11:33:29;98968.19;;;-1.12;100.00
24031;BME280;12240;51.142;22.486;2022-11-20T11:36:03;99009.47;;;-0.89;100.00
24031;BME280;12240;51.142;22.486;2022-11-20T11:38:41;98986.44;;;-0.83;100.00
24031;BME280;12240;51.142;22.486;2022-11-20T11:41:20;99002.22;;;-0.84;100.00
24031;BME280;12240;51.142;22.486;2022-11-20T11:43:55;99005.22;;;-0.76;100.00
24031;BME280;12240;51.142;22.486;2022-11-20T11:46:54;98950.03;;;-1.00;100.00
24031;BME280;12240;51.142;22.486;2022-11-20T11:49:23;98997.47;;;-0.78;100.00
24031;BME280;12240;51.142;22.486;2022-11-20T11:58:08;98944.50;;;-1.09;100.00
24031;BME280;12240;51.142;22.486;2022-11-20T12:00:41;98939.28;;;-1.09;100.00
24031;BME280;12240;51.142;22.486;2022-11-20T12:03:24;98939.28;;;-1.09;100.00
24031;BME280;12240;51.142;22.486;2022-11-20T12:06:05;98975.34;;;-0.86;100.00
24031;BME280;12240;51.142;22.486;2022-11-20T12:11:21;98964.22;;;-0.62;100.00
24031;BME280;12240;51.142;22.486;2022-11-20T12:14:33;98958.63;;;-0.70;100.00
24031;BME280;12240;51.142;22.486;2022-11-20T12:17:02;98943.50;;;-0.93;100.00
24031;BME280;12240;51.142;22.486;2022-11-20T12:19:34;98951.81;;;-0.86;100.00
24031;BME280;12240;51.142;22.486;2022-11-20T12:22:05;98924.16;;;-1.04;100.00
24031;BME280;12240;51.142;22.486;2022-11-20T12:24:58;98933.13;;;-0.94;100.00
24031;BME280;12240;51.142;22.486;2022-11-20T12:36:41;98918.31;;;-0.80;100.00
24031;BME280;12240;51.142;22.486;2022-11-20T12:39:30;98920.47;;;-0.86;100.00
24031;BME280;12240;51.142;22.486;2022-11-20T13:00:14;98904.94;;;-0.89;100.00
24031;BME280;12240;51.142;22.486;2022-11-20T13:08:45;98909.59;;;-0.94;100.00
24031;BME280;12240;51.142;22.486;2022-11-20T13:14:45;98908.59;;;-0.92;100.00
24031;BME280;12240;51.142;22.486;2022-11-20T13:20:09;98903.28;;;-0.90;100.00
24031;BME280;12240;51.142;22.486;2022-11-20T13:22:48;98874.91;;;-1.10;100.00
24031;BME280;12240;51.142;22.486;2022-11-20T13:25:36;98924.00;;;-0.73;100.00
24031;BME280;12240;51.142;22.486;2022-11-20T13:28:29;98923.34;;;-0.77;100.00
24031;BME280;12240;51.142;22.486;2022-11-20T13:30:58;98918.88;;;-0.75;100.00
24031;BME280;12240;51.142;22.486;2022-11-20T13:33:36;98916.53;;;-0.79;100.00
24031;BME280;12240;51.142;22.486;2022-11-20T13:36:27;98865.19;;;-1.08;100.00
24031;BME280;12240;51.142;22.486;2022-11-20T13:38:57;98903.38;;;-0.92;100.00
24031;BME280;12240;51.142;22.486;2022-11-20T13:41:35;98896.53;;;-0.94;100.00
24031;BME280;12240;51.142;22.486;2022-11-20T13:44:13;98902.91;;;-0.98;100.00
24031;BME280;12240;51.142;22.486;2022-11-20T13:46:45;98915.88;;;-0.97;100.00
24031;BME280;12240;51.142;22.486;2022-11-20T13:51:48;98917.63;;;-0.97;100.00
24031;BME280;12240;51.142;22.486;2022-11-20T13:54:59;98912.06;;;-0.91;100.00
24031;BME280;12240;51.142;22.486;2022-11-20T14:01:28;98910.00;;;-1.00;100.00
24031;BME280;12240;51.142;22.486;2022-11-20T14:03:59;98864.44;;;-1.10;100.00
24031;BME280;12240;51.142;22.486;2022-11-20T14:06:42;98894.78;;;-0.80;100.00
24031;BME280;12240;51.142;22.486;2022-11-20T14:09:29;98896.75;;;-0.83;100.00
24031;BME280;12240;51.142;22.486;2022-11-20T14:11:58;98890.75;;;-0.85;100.00
24031;BME280;12240;51.142;22.486;2022-11-20T14:14:28;98895.44;;;-0.76;100.00
24031;BME280;12240;51.142;22.486;2022-11-20T14:17:08;98887.50;;;-0.75;100.00
24031;BME280;12240;51.142;22.486;2022-11-20T14:19:39;98892.25;;;-0.81;100.00
24031;BME280;12240;51.142;22.486;2022-11-20T14:24:38;98872.56;;;-1.01;100.00
24031;BME280;12240;51.142;22.486;2022-11-20T14:27:19;98875.56;;;-1.07;100.00
24031;BME280;12240;51.142;22.486;2022-11-20T14:29:51;98873.41;;;-1.14;100.00
24031;BME280;12240;51.142;22.486;2022-11-20T14:32:23;98830.84;;;-1.45;100.00
24031;BME280;12240;51.142;22.486;2022-11-20T14:35:02;98880.97;;;-1.24;100.00
24031;BME280;12240;51.142;22.486;2022-11-20T14:37:38;98872.63;;;-1.31;100.00
24031;BME280;12240;51.142;22.486;2022-11-20T14:42:53;98800.56;;;-1.77;100.00